Wattsburg, Pennsylvania
Current Conditions -  °F | °C
As of 4:51 AM on Sunday 21 Dec 2014 (Local Time) from KERI Reporting Station
Overcast Overcast  
Wind Chill: -4°   Ceiling: 2500
Heat Index: -1°   Visibility: 10mi
Dew Point: -6°   Wind: 5mph
Humidity: 72%   Direction: 200°SSW
Pressure: 30.28"   Gusts: NA
Location:  42°N, 79.81°W
Report Text: KERI 210951Z 20004KT 10SM OVC025 M01/M06 A3028 RMK AO2 SLP264 T10111056
Loading
Personal Weather Stations






























Interactive Weather Map New forecast layout! Learn more

10-Day Weather Forecast

Advertisements
Track Severe Weather on mobile